sensor_id;sensor_type;location;lat;lon;timestamp;P1;durP1;ratioP1;P2;durP2;ratioP2
67508;SDS011;54354;44.724;11.284;2023-04-01T00:00:29;25.95;;;18.13;;
67508;SDS011;54354;44.724;11.284;2023-04-01T00:02:54;26.80;;;18.67;;
67508;SDS011;54354;44.724;11.284;2023-04-01T00:05:20;25.33;;;18.23;;
67508;SDS011;54354;44.724;11.284;2023-04-01T00:07:46;24.50;;;17.50;;
67508;SDS011;54354;44.724;11.284;2023-04-01T00:10:12;27.63;;;18.20;;
67508;SDS011;54354;44.724;11.284;2023-04-01T00:12:38;28.85;;;19.00;;
67508;SDS011;54354;44.724;11.284;2023-04-01T00:15:06;30.83;;;20.40;;
67508;SDS011;54354;44.724;11.284;2023-04-01T00:17:32;30.33;;;19.65;;
67508;SDS011;54354;44.724;11.284;2023-04-01T00:19:58;37.72;;;19.42;;
67508;SDS011;54354;44.724;11.284;2023-04-01T00:22:24;31.80;;;19.77;;
67508;SDS011;54354;44.724;11.284;2023-04-01T00:24:51;32.28;;;20.23;;
67508;SDS011;54354;44.724;11.284;2023-04-01T00:27:17;29.95;;;19.77;;
67508;SDS011;54354;44.724;11.284;2023-04-01T00:29:43;28.25;;;19.27;;
67508;SDS011;54354;44.724;11.284;2023-04-01T00:32:10;30.52;;;20.60;;
67508;SDS011;54354;44.724;11.284;2023-04-01T00:34:35;35.15;;;22.17;;
67508;SDS011;54354;44.724;11.284;2023-04-01T00:37:02;36.03;;;22.42;;
67508;SDS011;54354;44.724;11.284;2023-04-01T00:39:31;35.95;;;22.63;;
67508;SDS011;54354;44.724;11.284;2023-04-01T00:41:58;34.72;;;22.65;;
67508;SDS011;54354;44.724;11.284;2023-04-01T00:44:25;33.42;;;22.38;;
67508;SDS011;54354;44.724;11.284;2023-04-01T00:46:56;33.55;;;21.60;;
67508;SDS011;54354;44.724;11.284;2023-04-01T00:49:22;34.42;;;23.17;;
67508;SDS011;54354;44.724;11.284;2023-04-01T00:51:52;34.92;;;23.52;;
67508;SDS011;54354;44.724;11.284;2023-04-01T00:54:20;35.80;;;23.25;;
67508;SDS011;54354;44.724;11.284;2023-04-01T00:56:47;35.28;;;23.52;;
67508;SDS011;54354;44.724;11.284;2023-04-01T00:59:19;35.38;;;22.80;;
67508;SDS011;54354;44.724;11.284;2023-04-01T01:02:13;36.20;;;23.20;;
67508;SDS011;54354;44.724;11.284;2023-04-01T01:04:40;32.40;;;22.58;;
67508;SDS011;54354;44.724;11.284;2023-04-01T01:07:11;35.60;;;22.45;;
67508;SDS011;54354;44.724;11.284;2023-04-01T01:09:39;30.85;;;23.30;;
67508;SDS011;54354;44.724;11.284;2023-04-01T01:12:14;37.90;;;23.88;;
67508;SDS011;54354;44.724;11.284;2023-04-01T01:36:45;39.70;;;25.05;;
67508;SDS011;54354;44.724;11.284;2023-04-01T01:39:17;34.72;;;23.67;;
67508;SDS011;54354;44.724;11.284;2023-04-01T01:41:45;34.15;;;23.75;;
67508;SDS011;54354;44.724;11.284;2023-04-01T01:44:14;35.05;;;24.08;;
67508;SDS011;54354;44.724;11.284;2023-04-01T01:46:41;35.47;;;24.27;;
67508;SDS011;54354;44.724;11.284;2023-04-01T01:49:09;32.03;;;24.45;;
67508;SDS011;54354;44.724;11.284;2023-04-01T01:51:37;32.83;;;24.25;;
67508;SDS011;54354;44.724;11.284;2023-04-01T01:54:06;35.10;;;23.83;;
67508;SDS011;54354;44.724;11.284;2023-04-01T01:56:32;35.85;;;24.05;;
67508;SDS011;54354;44.724;11.284;2023-04-01T01:59:02;34.30;;;24.60;;
67508;SDS011;54354;44.724;11.284;2023-04-01T02:01:32;32.95;;;21.27;;
67508;SDS011;54354;44.724;11.284;2023-04-01T02:04:09;26.73;;;21.52;;
67508;SDS011;54354;44.724;11.284;2023-04-01T02:06:37;30.40;;;20.23;;
67508;SDS011;54354;44.724;11.284;2023-04-01T02:09:05;33.40;;;23.98;;
67508;SDS011;54354;44.724;11.284;2023-04-01T02:14:17;27.25;;;20.27;;
67508;SDS011;54354;44.724;11.284;2023-04-01T02:19:18;26.17;;;19.58;;
67508;SDS011;54354;44.724;11.284;2023-04-01T02:21:49;26.27;;;20.42;;
67508;SDS011;54354;44.724;11.284;2023-04-01T02:24:17;28.83;;;20.92;;
67508;SDS011;54354;44.724;11.284;2023-04-01T02:26:48;34.55;;;21.52;;
67508;SDS011;54354;44.724;11.284;2023-04-01T02:29:16;30.10;;;20.27;;
67508;SDS011;54354;44.724;11.284;2023-04-01T02:31:45;28.33;;;20.87;;
67508;SDS011;54354;44.724;11.284;2023-04-01T02:34:12;32.88;;;21.23;;
67508;SDS011;54354;44.724;11.284;2023-04-01T02:36:38;28.38;;;20.95;;
67508;SDS011;54354;44.724;11.284;2023-04-01T02:39:04;28.38;;;22.00;;
67508;SDS011;54354;44.724;11.284;2023-04-01T02:41:30;28.30;;;22.40;;
67508;SDS011;54354;44.724;11.284;2023-04-01T02:43:56;35.08;;;23.13;;
67508;SDS011;54354;44.724;11.284;2023-04-01T02:46:24;31.00;;;23.08;;
67508;SDS011;54354;44.724;11.284;2023-04-01T02:48:50;35.50;;;23.33;;
67508;SDS011;54354;44.724;11.284;2023-04-01T02:51:16;29.40;;;22.63;;
67508;SDS011;54354;44.724;11.284;2023-04-01T02:53:41;30.05;;;22.90;;
67508;SDS011;54354;44.724;11.284;2023-04-01T02:56:07;34.67;;;23.70;;
67508;SDS011;54354;44.724;11.284;2023-04-01T02:58:32;31.02;;;23.27;;
67508;SDS011;54354;44.724;11.284;2023-04-01T03:00:58;33.65;;;24.15;;
67508;SDS011;54354;44.724;11.284;2023-04-01T03:03:23;33.53;;;23.85;;
67508;SDS011;54354;44.724;11.284;2023-04-01T03:05:48;34.20;;;23.23;;
67508;SDS011;54354;44.724;11.284;2023-04-01T03:08:14;35.30;;;24.63;;
67508;SDS011;54354;44.724;11.284;2023-04-01T03:10:40;36.92;;;26.10;;
67508;SDS011;54354;44.724;11.284;2023-04-01T03:13:06;35.25;;;25.08;;
67508;SDS011;54354;44.724;11.284;2023-04-01T03:15:31;37.00;;;25.35;;
67508;SDS011;54354;44.724;11.284;2023-04-01T03:17:57;34.00;;;23.88;;
67508;SDS011;54354;44.724;11.284;2023-04-01T03:20:23;31.00;;;23.83;;
67508;SDS011;54354;44.724;11.284;2023-04-01T03:22:48;33.65;;;23.33;;
67508;SDS011;54354;44.724;11.284;2023-04-01T03:25:15;34.95;;;22.77;;
67508;SDS011;54354;44.724;11.284;2023-04-01T03:27:40;34.50;;;22.95;;
67508;SDS011;54354;44.724;11.284;2023-04-01T03:30:07;33.70;;;22.92;;
67508;SDS011;54354;44.724;11.284;2023-04-01T03:32:39;31.25;;;23.65;;
67508;SDS011;54354;44.724;11.284;2023-04-01T03:35:05;28.52;;;23.25;;
67508;SDS011;54354;44.724;11.284;2023-04-01T03:37:31;31.00;;;23.52;;
67508;SDS011;54354;44.724;11.284;2023-04-01T03:39:57;33.10;;;24.27;;
67508;SDS011;54354;44.724;11.284;2023-04-01T03:42:22;30.45;;;23.80;;
67508;SDS011;54354;44.724;11.284;2023-04-01T03:44:48;34.00;;;24.58;;
67508;SDS011;54354;44.724;11.284;2023-04-01T03:47:13;37.75;;;24.80;;
67508;SDS011;54354;44.724;11.284;2023-04-01T03:49:39;37.88;;;25.55;;
67508;SDS011;54354;44.724;11.284;2023-04-01T03:52:04;34.45;;;25.73;;
67508;SDS011;54354;44.724;11.284;2023-04-01T03:54:34;37.53;;;24.55;;
67508;SDS011;54354;44.724;11.284;2023-04-01T03:57:00;37.90;;;27.77;;
67508;SDS011;54354;44.724;11.284;2023-04-01T03:59:26;38.47;;;27.58;;
67508;SDS011;54354;44.724;11.284;2023-04-01T04:01:51;34.80;;;26.40;;
67508;SDS011;54354;44.724;11.284;2023-04-01T04:04:17;36.25;;;27.38;;
67508;SDS011;54354;44.724;11.284;2023-04-01T04:06:42;36.50;;;26.52;;
67508;SDS011;54354;44.724;11.284;2023-04-01T04:09:08;37.10;;;27.10;;
67508;SDS011;54354;44.724;11.284;2023-04-01T04:11:34;41.10;;;28.00;;
67508;SDS011;54354;44.724;11.284;2023-04-01T04:14:00;38.20;;;28.48;;
67508;SDS011;54354;44.724;11.284;2023-04-01T04:16:27;35.15;;;28.65;;
67508;SDS011;54354;44.724;11.284;2023-04-01T04:18:57;39.13;;;28.10;;
67508;SDS011;54354;44.724;11.284;2023-04-01T04:21:22;41.55;;;28.92;;
67508;SDS011;54354;44.724;11.284;2023-04-01T04:23:48;41.83;;;29.52;;
67508;SDS011;54354;44.724;11.284;2023-04-01T04:26:16;40.90;;;29.38;;
67508;SDS011;54354;44.724;11.284;2023-04-01T04:28:47;40.03;;;28.40;;
67508;SDS011;54354;44.724;11.284;2023-04-01T04:31:18;39.50;;;27.55;;
67508;SDS011;54354;44.724;11.284;2023-04-01T04:33:45;41.35;;;28.75;;
67508;SDS011;54354;44.724;11.284;2023-04-01T04:36:11;43.30;;;28.77;;
67508;SDS011;54354;44.724;11.284;2023-04-01T04:38:36;37.35;;;27.92;;
67508;SDS011;54354;44.724;11.284;2023-04-01T04:41:02;38.75;;;27.92;;
67508;SDS011;54354;44.724;11.284;2023-04-01T04:43:28;42.05;;;28.63;;
67508;SDS011;54354;44.724;11.284;2023-04-01T04:45:55;40.65;;;27.42;;
67508;SDS011;54354;44.724;11.284;2023-04-01T04:48:20;37.25;;;27.55;;
67508;SDS011;54354;44.724;11.284;2023-04-01T04:50:47;38.13;;;27.48;;
67508;SDS011;54354;44.724;11.284;2023-04-01T04:53:16;39.78;;;28.58;;
67508;SDS011;54354;44.724;11.284;2023-04-01T04:55:46;35.53;;;26.77;;
67508;SDS011;54354;44.724;11.284;2023-04-01T04:58:22;36.47;;;28.02;;
67508;SDS011;54354;44.724;11.284;2023-04-01T05:00:48;37.65;;;28.30;;
67508;SDS011;54354;44.724;11.284;2023-04-01T05:03:25;37.40;;;28.35;;
67508;SDS011;54354;44.724;11.284;2023-04-01T05:05:51;37.03;;;27.95;;
67508;SDS011;54354;44.724;11.284;2023-04-01T05:08:19;40.55;;;27.50;;
67508;SDS011;54354;44.724;11.284;2023-04-01T05:10:45;37.90;;;27.60;;
67508;SDS011;54354;44.724;11.284;2023-04-01T05:13:11;36.15;;;28.35;;
67508;SDS011;54354;44.724;11.284;2023-04-01T05:15:38;40.90;;;28.50;;
67508;SDS011;54354;44.724;11.284;2023-04-01T05:18:04;39.25;;;29.70;;
67508;SDS011;54354;44.724;11.284;2023-04-01T05:20:29;40.60;;;29.15;;
67508;SDS011;54354;44.724;11.284;2023-04-01T05:22:58;37.85;;;30.33;;
67508;SDS011;54354;44.724;11.284;2023-04-01T05:25:24;37.75;;;29.35;;
67508;SDS011;54354;44.724;11.284;2023-04-01T05:27:51;39.17;;;28.75;;
67508;SDS011;54354;44.724;11.284;2023-04-01T05:30:17;38.45;;;28.33;;
67508;SDS011;54354;44.724;11.284;2023-04-01T05:33:09;39.42;;;28.88;;
67508;SDS011;54354;44.724;11.284;2023-04-01T05:35:36;39.15;;;29.52;;
67508;SDS011;54354;44.724;11.284;2023-04-01T05:38:02;41.92;;;28.48;;
67508;SDS011;54354;44.724;11.284;2023-04-01T05:40:28;38.25;;;29.17;;
67508;SDS011;54354;44.724;11.284;2023-04-01T05:42:55;36.30;;;28.15;;
67508;SDS011;54354;44.724;11.284;2023-04-01T05:45:20;40.92;;;29.35;;
67508;SDS011;54354;44.724;11.284;2023-04-01T05:47:58;37.33;;;28.17;;
67508;SDS011;54354;44.724;11.284;2023-04-01T05:50:25;34.00;;;29.70;;
67508;SDS011;54354;44.724;11.284;2023-04-01T05:52:51;36.60;;;28.65;;
67508;SDS011;54354;44.724;11.284;2023-04-01T05:55:17;37.40;;;29.02;;
67508;SDS011;54354;44.724;11.284;2023-04-01T05:57:44;36.70;;;28.42;;
67508;SDS011;54354;44.724;11.284;2023-04-01T06:00:11;34.80;;;27.80;;
67508;SDS011;54354;44.724;11.284;2023-04-01T06:02:40;36.30;;;28.05;;
67508;SDS011;54354;44.724;11.284;2023-04-01T06:05:21;38.95;;;28.30;;
67508;SDS011;54354;44.724;11.284;2023-04-01T06:07:55;36.97;;;28.17;;
67508;SDS011;54354;44.724;11.284;2023-04-01T06:10:29;34.97;;;27.23;;
67508;SDS011;54354;44.724;11.284;2023-04-01T06:13:12;37.88;;;28.65;;
67508;SDS011;54354;44.724;11.284;2023-04-01T06:15:53;34.83;;;26.63;;
67508;SDS011;54354;44.724;11.284;2023-04-01T06:18:35;36.93;;;26.67;;
67508;SDS011;54354;44.724;11.284;2023-04-01T06:26:52;32.28;;;25.48;;
67508;SDS011;54354;44.724;11.284;2023-04-01T06:29:39;35.88;;;26.58;;
67508;SDS011;54354;44.724;11.284;2023-04-01T06:35:13;33.10;;;26.20;;
67508;SDS011;54354;44.724;11.284;2023-04-01T06:37:56;37.75;;;27.50;;
67508;SDS011;54354;44.724;11.284;2023-04-01T06:52:55;28.52;;;21.38;;
67508;SDS011;54354;44.724;11.284;2023-04-01T06:55:51;23.92;;;18.70;;
67508;SDS011;54354;44.724;11.284;2023-04-01T06:58:53;26.20;;;19.85;;
67508;SDS011;54354;44.724;11.284;2023-04-01T07:01:24;24.98;;;18.13;;
67508;SDS011;54354;44.724;11.284;2023-04-01T07:03:55;26.75;;;18.98;;
67508;SDS011;54354;44.724;11.284;2023-04-01T07:06:32;25.60;;;19.45;;
67508;SDS011;54354;44.724;11.284;2023-04-01T07:09:04;25.05;;;18.17;;
67508;SDS011;54354;44.724;11.284;2023-04-01T07:11:56;23.75;;;17.52;;
67508;SDS011;54354;44.724;11.284;2023-04-01T07:14:53;22.40;;;16.48;;
67508;SDS011;54354;44.724;11.284;2023-04-01T07:17:28;20.95;;;16.13;;
67508;SDS011;54354;44.724;11.284;2023-04-01T07:25:24;24.27;;;17.10;;
67508;SDS011;54354;44.724;11.284;2023-04-01T07:28:15;21.23;;;15.20;;
67508;SDS011;54354;44.724;11.284;2023-04-01T07:31:02;24.55;;;15.73;;
67508;SDS011;54354;44.724;11.284;2023-04-01T07:42:39;25.85;;;14.63;;
67508;SDS011;54354;44.724;11.284;2023-04-01T07:51:11;19.58;;;13.07;;
67508;SDS011;54354;44.724;11.284;2023-04-01T07:53:52;17.73;;;13.15;;
67508;SDS011;54354;44.724;11.284;2023-04-01T08:02:14;17.85;;;12.50;;
67508;SDS011;54354;44.724;11.284;2023-04-01T08:04:53;15.98;;;11.20;;
67508;SDS011;54354;44.724;11.284;2023-04-01T08:07:32;14.55;;;10.90;;
67508;SDS011;54354;44.724;11.284;2023-04-01T08:10:34;13.38;;;10.68;;
67508;SDS011;54354;44.724;11.284;2023-04-01T08:22:53;14.70;;;8.43;;
67508;SDS011;54354;44.724;11.284;2023-04-01T08:25:30;8.82;;;7.63;;
67508;SDS011;54354;44.724;11.284;2023-04-01T08:28:00;9.52;;;6.72;;
67508;SDS011;54354;44.724;11.284;2023-04-01T08:30:45;11.02;;;6.88;;
67508;SDS011;54354;44.724;11.284;2023-04-01T08:33:24;7.20;;;6.40;;
67508;SDS011;54354;44.724;11.284;2023-04-01T08:41:21;10.30;;;5.38;;
67508;SDS011;54354;44.724;11.284;2023-04-01T08:55:51;11.50;;;6.25;;
67508;SDS011;54354;44.724;11.284;2023-04-01T09:01:44;10.10;;;6.18;;
67508;SDS011;54354;44.724;11.284;2023-04-01T09:05:04;7.20;;;6.10;;
67508;SDS011;54354;44.724;11.284;2023-04-01T09:13:53;7.60;;;6.05;;
67508;SDS011;54354;44.724;11.284;2023-04-01T09:16:48;8.82;;;5.70;;
67508;SDS011;54354;44.724;11.284;2023-04-01T09:30:34;7.07;;;5.95;;
67508;SDS011;54354;44.724;11.284;2023-04-01T09:42:15;8.60;;;5.25;;
67508;SDS011;54354;44.724;11.284;2023-04-01T10:04:43;5.72;;;3.83;;
67508;SDS011;54354;44.724;11.284;2023-04-01T10:15:42;8.27;;;3.03;;
67508;SDS011;54354;44.724;11.284;2023-04-01T10:30:39;3.30;;;1.80;;
67508;SDS011;54354;44.724;11.284;2023-04-01T10:33:47;2.97;;;1.80;;
67508;SDS011;54354;44.724;11.284;2023-04-01T10:39:17;2.42;;;1.60;;
67508;SDS011;54354;44.724;11.284;2023-04-01T10:50:11;2.70;;;1.58;;
67508;SDS011;54354;44.724;11.284;2023-04-01T11:16:47;4.72;;;1.60;;
67508;SDS011;54354;44.724;11.284;2023-04-01T11:21:59;2.45;;;1.90;;
67508;SDS011;54354;44.724;11.284;2023-04-01T11:33:18;2.25;;;1.40;;
67508;SDS011;54354;44.724;11.284;2023-04-01T11:48:07;5.63;;;1.50;;
67508;SDS011;54354;44.724;11.284;2023-04-01T11:54:34;1.52;;;0.82;;
67508;SDS011;54354;44.724;11.284;2023-04-01T12:07:50;2.65;;;1.38;;
67508;SDS011;54354;44.724;11.284;2023-04-01T12:13:23;1.92;;;1.20;;
67508;SDS011;54354;44.724;11.284;2023-04-01T12:50:09;8.45;;;1.70;;
67508;SDS011;54354;44.724;11.284;2023-04-01T12:55:41;2.92;;;1.73;;
67508;SDS011;54354;44.724;11.284;2023-04-01T13:20:57;19.17;;;6.30;;
67508;SDS011;54354;44.724;11.284;2023-04-01T13:42:37;28.42;;;13.02;;
67508;SDS011;54354;44.724;11.284;2023-04-01T13:50:34;25.63;;;12.52;;
67508;SDS011;54354;44.724;11.284;2023-04-01T14:07:12;21.65;;;9.90;;
67508;SDS011;54354;44.724;11.284;2023-04-01T14:21:34;15.85;;;8.60;;
67508;SDS011;54354;44.724;11.284;2023-04-01T14:29:36;22.10;;;8.57;;
67508;SDS011;54354;44.724;11.284;2023-04-01T14:32:15;14.40;;;6.88;;
67508;SDS011;54354;44.724;11.284;2023-04-01T14:46:33;5.25;;;2.47;;
67508;SDS011;54354;44.724;11.284;2023-04-01T14:49:04;12.50;;;6.68;;
67508;SDS011;54354;44.724;11.284;2023-04-01T14:51:42;10.88;;;5.88;;
67508;SDS011;54354;44.724;11.284;2023-04-01T14:54:13;12.70;;;6.03;;
67508;SDS011;54354;44.724;11.284;2023-04-01T14:56:51;10.90;;;4.82;;
67508;SDS011;54354;44.724;11.284;2023-04-01T14:59:30;5.97;;;3.70;;
67508;SDS011;54354;44.724;11.284;2023-04-01T15:02:12;10.57;;;6.07;;
67508;SDS011;54354;44.724;11.284;2023-04-01T15:10:45;7.22;;;4.63;;
67508;SDS011;54354;44.724;11.284;2023-04-01T15:21:36;6.53;;;1.60;;
67508;SDS011;54354;44.724;11.284;2023-04-01T15:32:11;0.40;;;0.20;;
67508;SDS011;54354;44.724;11.284;2023-04-01T15:48:55;0.30;;;0.20;;
67508;SDS011;54354;44.724;11.284;2023-04-01T15:54:19;0.10;;;0.10;;
67508;SDS011;54354;44.724;11.284;2023-04-01T16:08:23;0.57;;;0.20;;
67508;SDS011;54354;44.724;11.284;2023-04-01T16:21:53;6.18;;;0.20;;
67508;SDS011;54354;44.724;11.284;2023-04-01T16:26:57;0.63;;;0.20;;
67508;SDS011;54354;44.724;11.284;2023-04-01T16:33:09;2.08;;;0.20;;
67508;SDS011;54354;44.724;11.284;2023-04-01T16:37:53;0.15;;;0.15;;
67508;SDS011;54354;44.724;11.284;2023-04-01T16:54:43;0.80;;;0.30;;
67508;SDS011;54354;44.724;11.284;2023-04-01T16:57:21;2.15;;;0.20;;
67508;SDS011;54354;44.724;11.284;2023-04-01T17:00:36;0.52;;;0.20;;
67508;SDS011;54354;44.724;11.284;2023-04-01T17:05:20;1.27;;;0.30;;
67508;SDS011;54354;44.724;11.284;2023-04-01T17:10:53;1.27;;;0.20;;
67508;SDS011;54354;44.724;11.284;2023-04-01T17:24:28;13.32;;;1.00;;
67508;SDS011;54354;44.724;11.284;2023-04-01T17:33:23;4.90;;;1.98;;
67508;SDS011;54354;44.724;11.284;2023-04-01T17:36:01;6.60;;;1.70;;
67508;SDS011;54354;44.724;11.284;2023-04-01T17:52:30;8.10;;;1.80;;
67508;SDS011;54354;44.724;11.284;2023-04-01T18:03:36;3.97;;;1.67;;
67508;SDS011;54354;44.724;11.284;2023-04-01T18:11:09;3.92;;;1.65;;
67508;SDS011;54354;44.724;11.284;2023-04-01T18:22:33;3.03;;;1.65;;
67508;SDS011;54354;44.724;11.284;2023-04-01T18:25:24;2.38;;;1.13;;
67508;SDS011;54354;44.724;11.284;2023-04-01T18:28:18;3.67;;;1.35;;
67508;SDS011;54354;44.724;11.284;2023-04-01T18:30:50;4.03;;;1.42;;
67508;SDS011;54354;44.724;11.284;2023-04-01T18:33:24;3.33;;;2.05;;
67508;SDS011;54354;44.724;11.284;2023-04-01T18:39:22;5.38;;;1.67;;
67508;SDS011;54354;44.724;11.284;2023-04-01T18:50:22;5.80;;;1.17;;
67508;SDS011;54354;44.724;11.284;2023-04-01T18:53:28;5.43;;;1.30;;
67508;SDS011;54354;44.724;11.284;2023-04-01T18:56:06;2.97;;;1.60;;
67508;SDS011;54354;44.724;11.284;2023-04-01T19:01:25;3.25;;;1.13;;
67508;SDS011;54354;44.724;11.284;2023-04-01T19:06:46;3.42;;;0.95;;
67508;SDS011;54354;44.724;11.284;2023-04-01T19:14:52;3.65;;;1.45;;
67508;SDS011;54354;44.724;11.284;2023-04-01T19:25:54;5.20;;;1.50;;
67508;SDS011;54354;44.724;11.284;2023-04-01T19:37:11;2.83;;;1.23;;
67508;SDS011;54354;44.724;11.284;2023-04-01T19:52:49;2.78;;;1.33;;
67508;SDS011;54354;44.724;11.284;2023-04-01T19:55:37;2.13;;;1.20;;
67508;SDS011;54354;44.724;11.284;2023-04-01T19:58:30;5.25;;;1.20;;
67508;SDS011;54354;44.724;11.284;2023-04-01T20:01:14;3.35;;;1.10;;
67508;SDS011;54354;44.724;11.284;2023-04-01T20:09:34;2.45;;;1.40;;
67508;SDS011;54354;44.724;11.284;2023-04-01T20:14:51;2.25;;;1.50;;
67508;SDS011;54354;44.724;11.284;2023-04-01T20:20:14;6.65;;;2.42;;
67508;SDS011;54354;44.724;11.284;2023-04-01T20:27:55;4.15;;;1.90;;
67508;SDS011;54354;44.724;11.284;2023-04-01T21:00:28;5.93;;;3.10;;
67508;SDS011;54354;44.724;11.284;2023-04-01T21:03:12;5.13;;;2.40;;
67508;SDS011;54354;44.724;11.284;2023-04-01T21:05:51;4.65;;;1.63;;
67508;SDS011;54354;44.724;11.284;2023-04-01T21:08:48;4.13;;;1.65;;
67508;SDS011;54354;44.724;11.284;2023-04-01T21:11:25;4.25;;;1.65;;
67508;SDS011;54354;44.724;11.284;2023-04-01T21:33:07;9.00;;;3.50;;
67508;SDS011;54354;44.724;11.284;2023-04-01T21:35:44;9.18;;;3.60;;
67508;SDS011;54354;44.724;11.284;2023-04-01T21:43:50;10.18;;;4.05;;
67508;SDS011;54354;44.724;11.284;2023-04-01T21:49:04;8.75;;;3.97;;
67508;SDS011;54354;44.724;11.284;2023-04-01T22:04:57;6.88;;;2.55;;
67508;SDS011;54354;44.724;11.284;2023-04-01T22:07:29;12.75;;;2.67;;
67508;SDS011;54354;44.724;11.284;2023-04-01T22:10:16;10.55;;;3.50;;
67508;SDS011;54354;44.724;11.284;2023-04-01T22:18:31;11.73;;;3.45;;
67508;SDS011;54354;44.724;11.284;2023-04-01T22:24:19;10.80;;;2.88;;
67508;SDS011;54354;44.724;11.284;2023-04-01T22:26:44;9.77;;;3.20;;
67508;SDS011;54354;44.724;11.284;2023-04-01T22:29:28;11.00;;;2.45;;
67508;SDS011;54354;44.724;11.284;2023-04-01T22:32:08;6.10;;;2.45;;
67508;SDS011;54354;44.724;11.284;2023-04-01T22:48:13;13.48;;;3.80;;
67508;SDS011;54354;44.724;11.284;2023-04-01T22:50:50;7.72;;;2.92;;
67508;SDS011;54354;44.724;11.284;2023-04-01T22:56:11;11.85;;;2.60;;
67508;SDS011;54354;44.724;11.284;2023-04-01T22:58:50;9.10;;;2.10;;
67508;SDS011;54354;44.724;11.284;2023-04-01T23:01:24;9.85;;;2.25;;
67508;SDS011;54354;44.724;11.284;2023-04-01T23:03:52;8.82;;;2.28;;
67508;SDS011;54354;44.724;11.284;2023-04-01T23:06:22;8.77;;;2.33;;
67508;SDS011;54354;44.724;11.284;2023-04-01T23:11:39;5.68;;;2.20;;
67508;SDS011;54354;44.724;11.284;2023-04-01T23:14:30;9.05;;;2.40;;
67508;SDS011;54354;44.724;11.284;2023-04-01T23:17:03;9.75;;;2.50;;
67508;SDS011;54354;44.724;11.284;2023-04-01T23:19:42;7.70;;;2.30;;
67508;SDS011;54354;44.724;11.284;2023-04-01T23:35:57;7.13;;;2.20;;
67508;SDS011;54354;44.724;11.284;2023-04-01T23:38:35;7.90;;;2.50;;
67508;SDS011;54354;44.724;11.284;2023-04-01T23:41:03;9.98;;;2.17;;
67508;SDS011;54354;44.724;11.284;2023-04-01T23:43:34;11.65;;;2.72;;
67508;SDS011;54354;44.724;11.284;2023-04-01T23:46:03;10.10;;;2.60;;
67508;SDS011;54354;44.724;11.284;2023-04-01T23:48:38;10.27;;;2.55;;
67508;SDS011;54354;44.724;11.284;2023-04-01T23:51:46;8.15;;;2.58;;
67508;SDS011;54354;44.724;11.284;2023-04-01T23:54:10;11.48;;;2.58;;
67508;SDS011;54354;44.724;11.284;2023-04-01T23:56:43;10.30;;;2.47;;
67508;SDS011;54354;44.724;11.284;2023-04-01T23:59:18;11.18;;;2.70;;
